createdAt,value
2018-12-12T00:00:44.451Z,1011.72
2018-12-12T00:01:44.435Z,1011.69
2018-12-12T00:02:44.448Z,1011.74
2018-12-12T00:03:44.416Z,1011.67
2018-12-12T00:04:44.427Z,1011.75
2018-12-12T00:05:44.407Z,1011.64
2018-12-12T00:06:44.397Z,1011.65
2018-12-12T00:07:44.369Z,1011.65
2018-12-12T00:08:44.357Z,1011.67
2018-12-12T00:09:44.371Z,1011.68
2018-12-12T00:10:44.367Z,1011.75
2018-12-12T00:11:44.344Z,1011.73
2018-12-12T00:12:44.306Z,1011.73
2018-12-12T00:13:44.293Z,1011.65
2018-12-12T00:14:44.286Z,1011.70
2018-12-12T00:15:44.287Z,1011.68
2018-12-12T00:16:44.328Z,1011.60
2018-12-12T00:17:44.268Z,1011.62
2018-12-12T00:18:44.248Z,1011.57
2018-12-12T00:19:44.231Z,1011.60
2018-12-12T00:20:44.214Z,1011.61
2018-12-12T00:21:44.238Z,1011.66
2018-12-12T00:22:44.197Z,1011.62
2018-12-12T00:23:44.189Z,1011.69
2018-12-12T00:24:44.168Z,1011.73
2018-12-12T00:25:44.161Z,1011.70
2018-12-12T00:26:44.148Z,1011.70
2018-12-12T00:27:44.159Z,1011.70
2018-12-12T00:28:44.123Z,1011.68
2018-12-12T00:29:44.131Z,1011.66
2018-12-12T00:30:44.098Z,1011.74
2018-12-12T00:31:44.109Z,1011.74
2018-12-12T00:32:44.084Z,1011.72
2018-12-12T00:33:44.068Z,1011.76
2018-12-12T00:34:44.065Z,1011.75
2018-12-12T00:35:44.050Z,1011.80
2018-12-12T00:36:44.062Z,1011.74
2018-12-12T00:37:44.030Z,1011.76
2018-12-12T00:38:44.008Z,1011.81
2018-12-12T00:39:44.001Z,1011.79
2018-12-12T00:40:44.029Z,1011.78
2018-12-12T00:41:43.993Z,1011.75
2018-12-12T00:42:43.971Z,1011.77
2018-12-12T00:43:43.984Z,1011.72
2018-12-12T00:44:43.941Z,1011.73
2018-12-12T00:45:43.930Z,1011.71
2018-12-12T00:46:43.962Z,1011.70
2018-12-12T00:47:43.904Z,1011.70
2018-12-12T00:48:43.897Z,1011.69
2018-12-12T00:49:43.894Z,1011.66
2018-12-12T00:50:43.872Z,1011.73
2018-12-12T00:51:43.876Z,1011.68
2018-12-12T00:52:43.870Z,1011.73
2018-12-12T00:53:43.869Z,1011.69
2018-12-12T00:54:43.845Z,1011.67
2018-12-12T00:55:43.811Z,1011.71
2018-12-12T00:56:43.806Z,1011.67
2018-12-12T00:57:43.811Z,1011.70
2018-12-12T00:58:43.783Z,1011.65
2018-12-12T00:59:43.768Z,1011.66
2018-12-12T01:00:43.776Z,1011.73
2018-12-12T01:01:43.765Z,1011.70
2018-12-12T01:02:43.759Z,1011.66
2018-12-12T01:03:43.727Z,1011.65
2018-12-12T01:04:43.713Z,1011.65
2018-12-12T01:05:43.712Z,1011.66
2018-12-12T01:06:43.726Z,1011.69
2018-12-12T01:07:43.673Z,1011.73
2018-12-12T01:08:43.666Z,1011.70
2018-12-12T01:09:43.691Z,1011.75
2018-12-12T01:10:43.650Z,1011.75
2018-12-12T01:11:43.644Z,1011.71
2018-12-12T01:12:43.643Z,1011.69
2018-12-12T01:13:43.608Z,1011.80
2018-12-12T01:14:43.603Z,1011.76
2018-12-12T01:15:43.584Z,1011.81
2018-12-12T01:16:43.599Z,1011.84
2018-12-12T01:17:43.585Z,1011.80
2018-12-12T01:18:43.547Z,1011.80
2018-12-12T01:19:43.544Z,1011.84
2018-12-12T01:20:43.524Z,1011.85
2018-12-12T01:21:43.516Z,1011.90
2018-12-12T01:22:43.578Z,1011.83
2018-12-12T01:23:43.553Z,1011.86
2018-12-12T01:24:43.480Z,1011.87
2018-12-12T01:25:43.471Z,1011.83
2018-12-12T01:26:43.500Z,1011.87
2018-12-12T01:27:43.471Z,1011.87
2018-12-12T01:28:43.514Z,1011.89
2018-12-12T01:29:43.436Z,1011.82
2018-12-12T01:30:43.409Z,1011.88
2018-12-12T01:31:43.400Z,1011.87
2018-12-12T01:32:43.392Z,1011.83
2018-12-12T01:33:43.399Z,1011.81
2018-12-12T01:34:43.361Z,1011.82
2018-12-12T01:35:43.382Z,1011.77
2018-12-12T01:36:43.339Z,1011.79
2018-12-12T01:37:43.332Z,1011.79
2018-12-12T01:38:43.337Z,1011.73
2018-12-12T01:39:43.305Z,1011.75
2018-12-12T01:40:43.300Z,1011.77
2018-12-12T01:41:43.292Z,1011.75
2018-12-12T01:42:43.273Z,1011.77
2018-12-12T01:43:43.278Z,1011.77
2018-12-12T01:44:43.246Z,1011.77
2018-12-12T01:45:51.275Z,1011.78
2018-12-12T01:46:43.225Z,1011.76
2018-12-12T01:47:43.210Z,1011.75
2018-12-12T01:48:43.222Z,1011.73
2018-12-12T01:49:43.189Z,1011.73
2018-12-12T01:50:43.251Z,1011.77
2018-12-12T01:51:43.215Z,1011.69
2018-12-12T01:52:43.152Z,1011.76
2018-12-12T01:53:43.139Z,1011.78
2018-12-12T01:54:43.146Z,1011.74
2018-12-12T01:55:43.129Z,1011.82
2018-12-12T01:56:43.106Z,1011.81
2018-12-12T01:57:43.094Z,1011.82
2018-12-12T01:58:43.086Z,1011.81
2018-12-12T01:59:43.098Z,1011.83
2018-12-12T02:00:43.076Z,1011.80
2018-12-12T02:01:43.047Z,1011.83
2018-12-12T02:02:43.037Z,1011.85
2018-12-12T02:03:43.024Z,1011.85
2018-12-12T02:04:43.034Z,1011.85
2018-12-12T02:05:43.005Z,1011.89
2018-12-12T02:06:42.992Z,1011.95
2018-12-12T02:07:43.007Z,1012.01
2018-12-12T02:08:42.966Z,1011.98
2018-12-12T02:09:42.987Z,1012.04
2018-12-12T02:10:42.945Z,1012.04
2018-12-12T02:11:42.964Z,1012.07
2018-12-12T02:12:42.948Z,1012.13
2018-12-12T02:13:42.921Z,1012.13
2018-12-12T02:14:42.931Z,1012.13
2018-12-12T02:15:42.885Z,1012.12
2018-12-12T02:16:42.881Z,1012.14
2018-12-12T02:17:42.883Z,1012.15
2018-12-12T02:18:42.853Z,1012.14
2018-12-12T02:19:42.891Z,1012.18
2018-12-12T02:20:42.830Z,1012.16
2018-12-12T02:21:42.824Z,1012.18
2018-12-12T02:22:42.821Z,1012.17
2018-12-12T02:23:42.793Z,1012.15
2018-12-12T02:24:42.810Z,1012.20
2018-12-12T02:25:42.769Z,1012.20
2018-12-12T02:26:42.769Z,1012.15
2018-12-12T02:27:42.756Z,1012.20
2018-12-12T02:28:42.737Z,1012.21
2018-12-12T02:29:42.747Z,1012.18
2018-12-12T02:30:42.726Z,1012.20
2018-12-12T02:31:42.698Z,1012.24
2018-12-12T02:32:42.695Z,1012.23
2018-12-12T02:33:42.694Z,1012.19
2018-12-12T02:34:42.682Z,1012.19
2018-12-12T02:35:42.651Z,1012.21
2018-12-12T02:36:42.645Z,1012.17
2018-12-12T02:37:42.636Z,1012.20
2018-12-12T02:38:42.623Z,1012.24
2018-12-12T02:39:42.641Z,1012.19
2018-12-12T02:40:42.597Z,1012.18
2018-12-12T02:41:42.582Z,1012.14
2018-12-12T02:42:42.581Z,1012.23
2018-12-12T02:43:42.561Z,1012.15
2018-12-12T02:44:42.574Z,1012.13
2018-12-12T02:45:42.554Z,1012.16
2018-12-12T02:46:42.524Z,1012.08
2018-12-12T02:47:42.512Z,1012.07
2018-12-12T02:48:42.501Z,1012.05
2018-12-12T02:49:42.545Z,1012.04
2018-12-12T02:50:42.478Z,1012.06
2018-12-12T02:51:42.472Z,1012.06
2018-12-12T02:52:42.471Z,1012.02
2018-12-12T02:53:42.466Z,1012.04
2018-12-12T02:54:42.448Z,1012.07
2018-12-12T02:55:42.439Z,1012.07
2018-12-12T02:56:42.414Z,1012.07
2018-12-12T02:57:42.392Z,1012.03
2018-12-12T02:58:42.389Z,1012.01
2018-12-12T02:59:42.400Z,1012.06
2018-12-12T03:00:42.382Z,1012.03
2018-12-12T03:01:42.347Z,1012.05
2018-12-12T03:02:42.334Z,1012.08
2018-12-12T03:03:42.324Z,1012.07
2018-12-12T03:04:42.314Z,1012.17
2018-12-12T03:05:42.319Z,1012.11
2018-12-12T03:06:42.309Z,1012.10
2018-12-12T03:07:42.275Z,1012.16
2018-12-12T03:08:42.264Z,1012.15
2018-12-12T03:09:42.256Z,1012.08
2018-12-12T03:10:42.274Z,1012.16
2018-12-12T03:11:42.238Z,1012.22
2018-12-12T03:12:42.217Z,1012.20
2018-12-12T03:13:42.213Z,1012.23
2018-12-12T03:14:42.198Z,1012.19
2018-12-12T03:15:42.212Z,1012.19
2018-12-12T03:16:42.184Z,1012.18
2018-12-12T03:17:42.167Z,1012.16
2018-12-12T03:18:42.152Z,1012.12
2018-12-12T03:19:42.158Z,1012.21
2018-12-12T03:20:42.160Z,1012.20
2018-12-12T03:21:42.121Z,1012.20
2018-12-12T03:22:42.114Z,1012.22
2018-12-12T03:23:42.092Z,1012.20
2018-12-12T03:24:42.077Z,1012.24
2018-12-12T03:25:42.117Z,1012.20
2018-12-12T03:26:42.063Z,1012.22
2018-12-12T03:27:42.049Z,1012.27
2018-12-12T03:28:42.038Z,1012.26
2018-12-12T03:29:42.056Z,1012.28
2018-12-12T03:30:42.017Z,1012.30
2018-12-12T03:31:42.024Z,1012.33
2018-12-12T03:32:41.991Z,1012.31
2018-12-12T03:33:41.992Z,1012.30
2018-12-12T03:34:41.984Z,1012.33
2018-12-12T03:35:41.952Z,1012.28
2018-12-12T03:36:41.958Z,1012.29
2018-12-12T03:37:41.928Z,1012.30
2018-12-12T03:38:41.917Z,1012.29
2018-12-12T03:39:41.911Z,1012.27
2018-12-12T03:40:41.900Z,1012.31
2018-12-12T03:41:41.903Z,1012.33
2018-12-12T03:42:41.877Z,1012.28
2018-12-12T03:43:41.857Z,1012.30
2018-12-12T03:44:41.861Z,1012.30
2018-12-12T03:45:41.851Z,1012.26
2018-12-12T03:46:41.842Z,1012.25
2018-12-12T03:47:41.819Z,1012.27
2018-12-12T03:48:41.801Z,1012.29
2018-12-12T03:49:41.794Z,1012.27
2018-12-12T03:50:41.784Z,1012.28
2018-12-12T03:51:41.807Z,1012.28
2018-12-12T03:52:41.753Z,1012.29
2018-12-12T03:53:41.744Z,1012.28
2018-12-12T03:54:41.737Z,1012.31
2018-12-12T03:55:41.722Z,1012.28
2018-12-12T03:56:41.757Z,1012.38
2018-12-12T03:57:41.706Z,1012.31
2018-12-12T03:58:41.689Z,1012.31
2018-12-12T03:59:41.678Z,1012.32
2018-12-12T04:00:41.666Z,1012.34
2018-12-12T04:01:41.655Z,1012.30
2018-12-12T04:02:41.663Z,1012.34
2018-12-12T04:03:41.633Z,1012.31
2018-12-12T04:04:41.621Z,1012.31
2018-12-12T04:05:41.660Z,1012.29
2018-12-12T04:06:41.603Z,1012.28
2018-12-12T04:07:41.604Z,1012.26
2018-12-12T04:08:41.574Z,1012.30
2018-12-12T04:09:41.565Z,1012.30
2018-12-12T04:10:41.557Z,1012.33
2018-12-12T04:11:41.536Z,1012.30
2018-12-12T04:12:41.539Z,1012.27
2018-12-12T04:13:41.510Z,1012.28
2018-12-12T04:14:41.498Z,1012.31
2018-12-12T04:15:41.499Z,1012.32
2018-12-12T04:16:41.477Z,1012.32
2018-12-12T04:17:41.483Z,1012.32
2018-12-12T04:18:41.451Z,1012.31
2018-12-12T04:19:41.439Z,1012.28
2018-12-12T04:20:41.429Z,1012.32
2018-12-12T04:21:41.424Z,1012.30
2018-12-12T04:22:41.437Z,1012.30
2018-12-12T04:23:41.397Z,1012.34
2018-12-12T04:24:41.405Z,1012.28
2018-12-12T04:25:41.367Z,1012.30
2018-12-12T04:26:41.361Z,1012.30
2018-12-12T04:27:41.429Z,1012.29
2018-12-12T04:28:41.357Z,1012.26
2018-12-12T04:29:41.323Z,1012.25
2018-12-12T04:30:41.322Z,1012.30
2018-12-12T04:31:41.301Z,1012.24
2018-12-12T04:32:41.312Z,1012.26
2018-12-12T04:33:41.316Z,1012.30
2018-12-12T04:34:41.267Z,1012.30
2018-12-12T04:35:41.252Z,1012.33
2018-12-12T04:36:41.239Z,1012.28
2018-12-12T04:37:41.230Z,1012.29
2018-12-12T04:38:41.243Z,1012.21
2018-12-12T04:39:41.203Z,1012.23
2018-12-12T04:40:41.192Z,1012.28
2018-12-12T04:41:41.180Z,1012.24
2018-12-12T04:42:41.172Z,1012.26
2018-12-12T04:43:41.186Z,1012.32
2018-12-12T04:44:41.161Z,1012.28
2018-12-12T04:45:41.134Z,1012.28
2018-12-12T04:46:41.125Z,1012.18
2018-12-12T04:47:41.114Z,1012.31
2018-12-12T04:48:41.099Z,1012.22
2018-12-12T04:49:41.133Z,1012.20
2018-12-12T04:50:41.092Z,1012.25
2018-12-12T04:51:41.065Z,1012.22
2018-12-12T04:52:42.840Z,1012.26
2018-12-12T04:53:41.142Z,1012.21
2018-12-12T04:54:41.046Z,1012.19
2018-12-12T04:55:41.096Z,1012.34
2018-12-12T04:56:41.009Z,1012.25
2018-12-12T04:57:40.993Z,1012.30
2018-12-12T04:58:40.991Z,1012.30
2018-12-12T04:59:40.993Z,1012.27
2018-12-12T05:00:40.964Z,1012.23
2018-12-12T05:01:40.973Z,1012.26
2018-12-12T05:02:40.938Z,1012.30
2018-12-12T05:03:40.923Z,1012.32
2018-12-12T05:04:40.930Z,1012.30
2018-12-12T05:05:40.911Z,1012.32
2018-12-12T05:06:40.901Z,1012.33
2018-12-12T05:07:40.875Z,1012.35
2018-12-12T05:08:40.887Z,1012.38
2018-12-12T05:09:40.876Z,1012.39
2018-12-12T05:10:40.840Z,1012.34
2018-12-12T05:11:40.829Z,1012.41
2018-12-12T05:12:40.838Z,1012.40
2018-12-12T05:13:40.806Z,1012.35
2018-12-12T05:14:40.796Z,1012.38
2018-12-12T05:15:40.803Z,1012.40
2018-12-12T05:16:40.788Z,1012.39
2018-12-12T05:17:40.769Z,1012.38
2018-12-12T05:18:40.745Z,1012.39
2018-12-12T05:19:40.747Z,1012.43
2018-12-12T05:20:40.770Z,1012.46
2018-12-12T05:21:40.712Z,1012.47
2018-12-12T05:22:40.705Z,1012.51
2018-12-12T05:23:40.700Z,1012.54
2018-12-12T05:24:40.708Z,1012.48
2018-12-12T05:25:40.687Z,1012.50
2018-12-12T05:26:40.656Z,1012.49
2018-12-12T05:27:40.664Z,1012.52
2018-12-12T05:28:40.629Z,1012.49
2018-12-12T05:29:40.617Z,1012.45
2018-12-12T05:30:40.641Z,1012.50
2018-12-12T05:31:40.597Z,1012.50
2018-12-12T05:32:40.598Z,1012.51
2018-12-12T05:33:40.604Z,1012.49
2018-12-12T05:34:40.561Z,1012.53
2018-12-12T05:35:40.546Z,1012.47
2018-12-12T05:36:40.554Z,1012.54
2018-12-12T05:37:40.523Z,1012.54
2018-12-12T05:38:40.512Z,1012.57
2018-12-12T05:39:40.582Z,1012.57
2018-12-12T05:40:40.502Z,1012.58
2018-12-12T05:41:40.590Z,1012.61
2018-12-12T05:42:40.469Z,1012.56
2018-12-12T05:43:40.457Z,1012.65
2018-12-12T05:44:40.445Z,1012.64
2018-12-12T05:45:40.488Z,1012.59
2018-12-12T05:46:41.938Z,1012.58
2018-12-12T05:47:40.417Z,1012.58
2018-12-12T05:48:40.394Z,1012.56
2018-12-12T05:49:40.383Z,1012.58
2018-12-12T05:50:40.372Z,1012.57
2018-12-12T05:51:40.360Z,1012.57
2018-12-12T05:52:40.368Z,1012.57
2018-12-12T05:53:40.352Z,1012.51
2018-12-12T05:54:40.328Z,1012.47
2018-12-12T05:55:40.313Z,1012.44
2018-12-12T05:56:40.301Z,1012.56
2018-12-12T05:57:40.318Z,1012.49
2018-12-12T05:58:40.280Z,1012.49
2018-12-12T05:59:40.272Z,1012.53
2018-12-12T06:00:40.272Z,1012.49
2018-12-12T06:01:40.248Z,1012.54
2018-12-12T06:02:40.261Z,1012.53
2018-12-12T06:03:40.219Z,1012.47
2018-12-12T06:04:40.211Z,1012.52
2018-12-12T06:05:40.196Z,1012.53
2018-12-12T06:06:40.200Z,1012.55
2018-12-12T06:07:40.196Z,1012.53
2018-12-12T06:08:40.164Z,1012.56
2018-12-12T06:09:40.153Z,1012.54
2018-12-12T06:10:40.184Z,1012.57
2018-12-12T06:11:40.125Z,1012.54
2018-12-12T06:12:40.155Z,1012.57
2018-12-12T06:13:40.108Z,1012.53
2018-12-12T06:14:40.099Z,1012.53
2018-12-12T06:15:40.080Z,1012.49
2018-12-12T06:16:40.072Z,1012.51
2018-12-12T06:17:40.067Z,1012.54
2018-12-12T06:18:40.064Z,1012.55
2018-12-12T06:19:40.033Z,1012.56
2018-12-12T06:20:40.025Z,1012.53
2018-12-12T06:21:40.011Z,1012.58
2018-12-12T06:22:40.010Z,1012.57
2018-12-12T06:23:40.005Z,1012.66
2018-12-12T06:24:39.976Z,1012.62
2018-12-12T06:25:39.979Z,1012.65
2018-12-12T06:26:39.967Z,1012.62
2018-12-12T06:27:39.948Z,1012.58
2018-12-12T06:28:39.966Z,1012.58
2018-12-12T06:29:39.918Z,1012.61
2018-12-12T06:30:39.909Z,1012.61
2018-12-12T06:31:39.894Z,1012.67
2018-12-12T06:32:39.884Z,1012.63
2018-12-12T06:33:39.894Z,1012.60
2018-12-12T06:34:41.139Z,1012.68
2018-12-12T06:35:39.853Z,1012.66
2018-12-12T06:36:39.835Z,1012.72
2018-12-12T06:37:39.835Z,1012.73
2018-12-12T06:38:39.839Z,1012.71
2018-12-12T06:39:39.803Z,1012.69
2018-12-12T06:40:39.788Z,1012.72
2018-12-12T06:41:39.777Z,1012.72
2018-12-12T06:42:39.798Z,1012.78
2018-12-12T06:43:39.755Z,1012.74
2018-12-12T06:44:39.746Z,1012.74
2018-12-12T06:45:39.730Z,1012.76
2018-12-12T06:46:39.743Z,1012.74
2018-12-12T06:47:39.729Z,1012.80
2018-12-12T06:48:39.704Z,1012.88
2018-12-12T06:49:39.684Z,1012.86
2018-12-12T06:50:39.696Z,1012.87
2018-12-12T06:51:39.698Z,1012.82
2018-12-12T06:52:39.666Z,1012.85
2018-12-12T06:53:39.645Z,1012.83
2018-12-12T06:54:39.624Z,1012.87
2018-12-12T06:55:39.611Z,1012.82
2018-12-12T06:56:39.626Z,1012.84
2018-12-12T06:57:39.627Z,1012.88
2018-12-12T06:58:39.577Z,1012.85
2018-12-12T06:59:39.576Z,1012.85
2018-12-12T07:00:39.571Z,1012.85
2018-12-12T07:01:39.541Z,1012.85
2018-12-12T07:02:39.573Z,1012.89
2018-12-12T07:03:39.520Z,1012.86
2018-12-12T07:04:39.504Z,1012.86
2018-12-12T07:05:39.496Z,1012.90
2018-12-12T07:06:39.496Z,1012.93
2018-12-12T07:07:39.474Z,1012.92
2018-12-12T07:08:39.482Z,1012.91
2018-12-12T07:09:39.447Z,1012.92
2018-12-12T07:10:39.435Z,1012.88
2018-12-12T07:11:39.430Z,1012.91
2018-12-12T07:12:39.413Z,1012.92
2018-12-12T07:13:39.428Z,1012.92
2018-12-12T07:14:39.390Z,1012.94
2018-12-12T07:15:39.377Z,1012.92
2018-12-12T07:16:39.371Z,1012.94
2018-12-12T07:17:39.354Z,1012.88
2018-12-12T07:18:39.364Z,1012.95
2018-12-12T07:19:39.334Z,1012.96
2018-12-12T07:20:39.319Z,1012.95
2018-12-12T07:21:39.319Z,1012.94
2018-12-12T07:22:39.300Z,1012.93
2018-12-12T07:23:39.304Z,1012.97
2018-12-12T07:24:39.313Z,1013.01
2018-12-12T07:25:39.260Z,1013.00
2018-12-12T07:26:39.262Z,1012.97
2018-12-12T07:27:39.243Z,1012.99
2018-12-12T07:28:39.248Z,1012.98
2018-12-12T07:29:39.215Z,1013.01
2018-12-12T07:30:39.204Z,1013.02
2018-12-12T07:31:39.190Z,1013.03
2018-12-12T07:32:39.203Z,1012.98
2018-12-12T07:33:39.204Z,1013.02
2018-12-12T07:34:39.161Z,1013.00
2018-12-12T07:35:39.147Z,1013.05
2018-12-12T07:36:39.131Z,1013.01
2018-12-12T07:37:39.120Z,1013.01
2018-12-12T07:38:39.128Z,1013.08
2018-12-12T07:39:39.124Z,1013.08
2018-12-12T07:40:39.094Z,1013.02
2018-12-12T07:41:39.073Z,1013.08
2018-12-12T07:42:39.062Z,1013.08
2018-12-12T07:43:39.070Z,1013.06
2018-12-12T07:44:39.039Z,1013.11
2018-12-12T07:45:39.043Z,1013.14
2018-12-12T07:46:39.015Z,1013.13
2018-12-12T07:47:39.005Z,1013.20
2018-12-12T07:48:39.012Z,1013.17
2018-12-12T07:49:38.980Z,1013.19
2018-12-12T07:50:38.970Z,1013.19
2018-12-12T07:51:38.966Z,1013.18
2018-12-12T07:52:38.958Z,1013.22
2018-12-12T07:53:38.952Z,1013.20
2018-12-12T07:54:38.923Z,1013.18
2018-12-12T07:55:38.909Z,1013.21
2018-12-12T07:56:38.901Z,1013.26
2018-12-12T07:57:38.887Z,1013.23
2018-12-12T07:58:38.927Z,1013.21
2018-12-12T07:59:38.863Z,1013.16
2018-12-12T08:00:38.854Z,1013.16
2018-12-12T08:01:38.845Z,1013.15
2018-12-12T08:02:38.832Z,1013.23
2018-12-12T08:03:38.838Z,1013.20
2018-12-12T08:04:38.803Z,1013.23
2018-12-12T08:05:38.805Z,1013.19
2018-12-12T08:06:38.784Z,1013.19
2018-12-12T08:07:38.772Z,1013.25
2018-12-12T08:08:38.785Z,1013.26
2018-12-12T08:09:38.745Z,1013.23
2018-12-12T08:10:38.736Z,1013.22
2018-12-12T08:11:38.722Z,1013.21
2018-12-12T08:12:38.728Z,1013.24
2018-12-12T08:13:38.717Z,1013.26
2018-12-12T08:14:38.698Z,1013.24
2018-12-12T08:15:38.676Z,1013.23
2018-12-12T08:16:38.674Z,1013.26
2018-12-12T08:17:38.652Z,1013.27
2018-12-12T08:18:38.662Z,1013.23
2018-12-12T08:19:38.633Z,1013.29
2018-12-12T08:20:38.624Z,1013.24
2018-12-12T08:21:38.605Z,1013.32
2018-12-12T08:22:38.600Z,1013.28
2018-12-12T08:23:38.604Z,1013.35
2018-12-12T08:24:38.574Z,1013.31
2018-12-12T08:25:38.558Z,1013.34
2018-12-12T08:26:38.623Z,1013.36
2018-12-12T08:27:39.379Z,1013.31
2018-12-12T08:28:38.545Z,1013.34
2018-12-12T08:29:38.515Z,1013.30
2018-12-12T08:30:38.507Z,1013.30
2018-12-12T08:31:38.490Z,1013.32
2018-12-12T08:32:38.521Z,1013.28
2018-12-12T08:33:38.487Z,1013.29
2018-12-12T08:34:38.462Z,1013.33
2018-12-12T08:35:38.445Z,1013.36
2018-12-12T08:36:38.445Z,1013.38
2018-12-12T08:37:38.421Z,1013.37
2018-12-12T08:38:38.439Z,1013.38
2018-12-12T08:39:38.406Z,1013.34
2018-12-12T08:40:38.391Z,1013.36
2018-12-12T08:41:38.376Z,1013.33
2018-12-12T08:42:38.364Z,1013.39
2018-12-12T08:43:38.378Z,1013.36
2018-12-12T08:44:38.342Z,1013.42
2018-12-12T08:45:38.336Z,1013.43
2018-12-12T08:46:38.321Z,1013.41
2018-12-12T08:47:38.317Z,1013.39
2018-12-12T08:48:38.338Z,1013.39
2018-12-12T08:49:38.286Z,1013.38
2018-12-12T08:50:38.274Z,1013.42
2018-12-12T08:51:38.267Z,1013.46
2018-12-12T08:52:38.269Z,1013.43
2018-12-12T08:53:38.241Z,1013.43
2018-12-12T08:54:38.255Z,1013.41
2018-12-12T08:55:38.218Z,1013.47
2018-12-12T08:56:38.220Z,1013.44
2018-12-12T08:57:38.205Z,1013.48
2018-12-12T08:58:38.183Z,1013.51
2018-12-12T08:59:38.203Z,1013.52
2018-12-12T09:00:38.193Z,1013.54
2018-12-12T09:01:38.150Z,1013.54
2018-12-12T09:02:38.139Z,1013.46
2018-12-12T09:03:38.128Z,1013.49
2018-12-12T09:04:38.151Z,1013.48
2018-12-12T09:05:38.109Z,1013.49
2018-12-12T09:06:38.098Z,1013.50
2018-12-12T09:07:38.091Z,1013.51
2018-12-12T09:08:38.071Z,1013.53
2018-12-12T09:09:38.061Z,1013.50
2018-12-12T09:10:38.068Z,1013.54
2018-12-12T09:11:38.046Z,1013.58
2018-12-12T09:12:38.053Z,1013.62
2018-12-12T09:13:38.014Z,1013.54
2018-12-12T09:14:38.002Z,1013.56
2018-12-12T09:15:38.061Z,1013.58
2018-12-12T09:16:37.979Z,1013.55
2018-12-12T09:17:37.968Z,1013.54
2018-12-12T09:18:37.961Z,1013.53
2018-12-12T09:19:37.947Z,1013.58
2018-12-12T09:20:37.958Z,1013.58
2018-12-12T09:21:37.923Z,1013.58
2018-12-12T09:22:37.922Z,1013.59
2018-12-12T09:23:37.924Z,1013.56
2018-12-12T09:24:37.886Z,1013.57
2018-12-12T09:25:37.901Z,1013.52
2018-12-12T09:26:37.865Z,1013.55
2018-12-12T09:27:37.852Z,1013.58
2018-12-12T09:28:37.842Z,1013.57
2018-12-12T09:29:37.867Z,1013.56
2018-12-12T09:30:37.818Z,1013.57
2018-12-12T09:31:37.841Z,1013.52
2018-12-12T09:32:37.793Z,1013.58
2018-12-12T09:33:37.787Z,1013.59
2018-12-12T09:34:37.773Z,1013.61
2018-12-12T09:35:37.777Z,1013.60
2018-12-12T09:36:37.776Z,1013.61
2018-12-12T09:37:37.742Z,1013.60
2018-12-12T09:38:37.725Z,1013.60
2018-12-12T09:39:37.715Z,1013.65
2018-12-12T09:40:37.706Z,1013.70
2018-12-12T09:41:37.734Z,1013.63
2018-12-12T09:42:37.680Z,1013.70
2018-12-12T09:43:44.703Z,1013.69
2018-12-12T09:44:37.657Z,1013.70
2018-12-12T09:45:37.643Z,1013.75
2018-12-12T09:46:37.634Z,1013.76
2018-12-12T09:47:37.642Z,1013.68
2018-12-12T09:48:37.612Z,1013.73
2018-12-12T09:49:37.599Z,1013.65
2018-12-12T09:50:37.587Z,1013.70
2018-12-12T09:51:37.578Z,1013.62
2018-12-12T09:52:37.583Z,1013.65
2018-12-12T09:53:37.552Z,1013.66
2018-12-12T09:54:37.540Z,1013.68
2018-12-12T09:55:37.532Z,1013.66
2018-12-12T09:56:37.517Z,1013.66
2018-12-12T09:57:37.554Z,1013.70
2018-12-12T09:58:37.496Z,1013.66
2018-12-12T09:59:37.482Z,1013.65
2018-12-12T10:00:37.471Z,1013.66
2018-12-12T10:01:37.460Z,1013.68
2018-12-12T10:02:37.448Z,1013.70
2018-12-12T10:03:37.462Z,1013.73
2018-12-12T10:04:37.424Z,1013.73
2018-12-12T10:05:37.414Z,1013.70
2018-12-12T10:06:37.403Z,1013.67
2018-12-12T10:07:37.389Z,1013.71
2018-12-12T10:08:37.432Z,1013.69
2018-12-12T10:09:37.387Z,1013.67
2018-12-12T10:10:37.352Z,1013.65
2018-12-12T10:11:37.342Z,1013.64
2018-12-12T10:12:37.330Z,1013.65
2018-12-12T10:13:37.316Z,1013.73
2018-12-12T10:14:37.322Z,1013.64
2018-12-12T10:15:37.293Z,1013.76
2018-12-12T10:16:37.285Z,1013.65
2018-12-12T10:17:37.268Z,1013.64
2018-12-12T10:18:37.260Z,1013.62
2018-12-12T10:19:37.270Z,1013.65
2018-12-12T10:20:37.236Z,1013.64
2018-12-12T10:21:37.222Z,1013.63
2018-12-12T10:22:37.211Z,1013.65
2018-12-12T10:23:37.198Z,1013.63
2018-12-12T10:24:37.209Z,1013.57
2018-12-12T10:25:37.175Z,1013.57
2018-12-12T10:26:37.164Z,1013.62
2018-12-12T10:27:37.153Z,1013.64
2018-12-12T10:28:37.142Z,1013.63
2018-12-12T10:29:38.400Z,1013.64
2018-12-12T10:30:37.134Z,1013.65
2018-12-12T10:31:37.104Z,1013.60
2018-12-12T10:32:37.092Z,1013.63
2018-12-12T10:33:37.786Z,1013.64
2018-12-12T10:34:37.141Z,1013.59
2018-12-12T10:35:37.076Z,1013.63
2018-12-12T10:36:37.046Z,1013.62
2018-12-12T10:37:37.035Z,1013.56
2018-12-12T10:38:37.021Z,1013.56
2018-12-12T10:39:37.012Z,1013.52
2018-12-12T10:40:37.030Z,1013.57
2018-12-12T10:41:36.988Z,1013.52
2018-12-12T10:42:36.975Z,1013.53
2018-12-12T10:43:36.964Z,1013.47
2018-12-12T10:44:36.953Z,1013.54
2018-12-12T10:45:36.941Z,1013.47
2018-12-12T10:46:36.950Z,1013.52
2018-12-12T10:47:36.917Z,1013.51
2018-12-12T10:48:36.907Z,1013.54
2018-12-12T10:49:36.896Z,1013.49
2018-12-12T10:50:36.885Z,1013.52
2018-12-12T10:51:36.889Z,1013.55
2018-12-12T10:52:36.857Z,1013.51
2018-12-12T10:53:36.845Z,1013.45
2018-12-12T10:54:36.891Z,1013.44
2018-12-12T10:55:36.823Z,1013.43
2018-12-12T10:56:36.842Z,1013.41
2018-12-12T10:57:36.801Z,1013.43
2018-12-12T10:58:38.284Z,1013.45
2018-12-12T10:59:36.776Z,1013.45
2018-12-12T11:00:36.765Z,1013.44
2018-12-12T11:01:36.752Z,1013.48
2018-12-12T11:02:36.759Z,1013.45
2018-12-12T11:03:36.729Z,1013.43
2018-12-12T11:04:36.718Z,1013.45
2018-12-12T11:05:36.705Z,1013.48
2018-12-12T11:06:36.716Z,1013.44
2018-12-12T11:07:36.684Z,1013.43
2018-12-12T11:08:36.674Z,1013.47
2018-12-12T11:09:36.660Z,1013.44
2018-12-12T11:10:36.649Z,1013.44
2018-12-12T11:11:36.657Z,1013.44
2018-12-12T11:12:36.625Z,1013.45
2018-12-12T11:13:36.612Z,1013.43
2018-12-12T11:14:36.599Z,1013.43
2018-12-12T11:15:36.587Z,1013.41
2018-12-12T11:16:36.600Z,1013.40
2018-12-12T11:17:36.564Z,1013.39
2018-12-12T11:18:36.553Z,1013.32
2018-12-12T11:19:36.544Z,1013.29
2018-12-12T11:20:36.529Z,1013.33
2018-12-12T11:21:36.516Z,1013.29
2018-12-12T11:22:36.532Z,1013.30
2018-12-12T11:23:36.493Z,1013.30
2018-12-12T11:24:36.482Z,1013.31
2018-12-12T11:25:36.471Z,1013.30
2018-12-12T11:26:36.481Z,1013.31
2018-12-12T11:27:36.447Z,1013.30
2018-12-12T11:28:36.435Z,1013.28
2018-12-12T11:29:36.422Z,1013.25
2018-12-12T11:30:36.414Z,1013.26
2018-12-12T11:31:36.400Z,1013.27
2018-12-12T11:32:36.409Z,1013.24
2018-12-12T11:33:36.379Z,1013.23
2018-12-12T11:34:36.365Z,1013.24
2018-12-12T11:35:36.355Z,1013.25
2018-12-12T11:36:36.360Z,1013.27
2018-12-12T11:37:36.331Z,1013.29
2018-12-12T11:38:36.320Z,1013.29
2018-12-12T11:39:36.310Z,1013.22
2018-12-12T11:40:36.298Z,1013.23
2018-12-12T11:41:36.314Z,1013.24
2018-12-12T11:42:36.278Z,1013.21
2018-12-12T11:43:36.262Z,1013.17
2018-12-12T11:44:36.248Z,1013.20
2018-12-12T11:45:36.238Z,1013.22
2018-12-12T11:46:36.248Z,1013.12
2018-12-12T11:47:36.213Z,1013.17
2018-12-12T11:48:36.251Z,1013.18
2018-12-12T11:49:36.190Z,1013.13
2018-12-12T11:50:36.179Z,1013.12
2018-12-12T11:51:36.213Z,1013.16
2018-12-12T11:52:36.154Z,1013.15
2018-12-12T11:53:36.142Z,1013.10
2018-12-12T11:54:36.130Z,1013.12
2018-12-12T11:55:36.117Z,1013.11
2018-12-12T11:56:36.106Z,1013.15
2018-12-12T11:57:36.113Z,1013.14
2018-12-12T11:58:36.083Z,1013.15
2018-12-12T11:59:36.069Z,1013.15
2018-12-12T12:00:36.057Z,1013.17
2018-12-12T12:01:36.046Z,1013.13
2018-12-12T12:02:36.077Z,1013.17
2018-12-12T12:03:36.023Z,1013.18
2018-12-12T12:04:36.011Z,1013.09
2018-12-12T12:05:36.000Z,1013.06